Time;durP1;ratioP1;P1;durP2;ratioP2;P2;SDS_P1;SDS_P2;PMS_P1;PMS_P2;Temp;Humidity;BMP_temperature;BMP_pressure;BME280_temperature;BME280_humidity;BME280_pressure;Samples;Min_cycle;Max_cycle;Signal;HPM_P1;HPM_P2
2022/02/13 00:02:01;;;;;;;6.32;2.70;;;1.70;99.90;;;;;;12611785;28;20301;-40
2022/02/13 00:08:03;;;;;;;8.02;3.13;;;1.70;99.90;;;;;;12612286;28;20040;-39
2022/02/13 00:14:05;;;;;;;8.02;3.10;;;1.70;99.90;;;;;;12617042;28;20509;-40
2022/02/13 00:20:08;;;;;;;6.43;3.00;;;1.80;99.90;;;;;;12620319;28;20100;-37
2022/02/13 00:26:10;;;;;;;8.57;3.25;;;1.80;99.90;;;;;;12620482;28;20158;-40
2022/02/13 00:32:12;;;;;;;11.20;4.03;;;1.80;99.90;;;;;;12621635;28;20063;-36
2022/02/13 00:38:15;;;;;;;7.03;3.20;;;1.80;99.90;;;;;;12618656;28;20051;-40
2022/02/13 00:44:17;;;;;;;8.48;3.20;;;1.70;99.90;;;;;;12620923;28;20048;-37
2022/02/13 00:50:20;;;;;;;8.95;2.97;;;1.70;99.90;;;;;;12618389;28;20484;-36
2022/02/13 00:56:22;;;;;;;8.10;3.30;;;1.60;99.90;;;;;;12621144;28;20162;-36
2022/02/13 01:02:24;;;;;;;7.22;3.30;;;1.60;99.90;;;;;;12614467;28;20493;-41
2022/02/13 01:08:26;;;;;;;10.55;3.00;;;1.70;99.90;;;;;;12619295;28;20051;-37
2022/02/13 01:14:28;;;;;;;8.02;3.38;;;1.70;99.90;;;;;;12614053;28;20051;-37
2022/02/13 01:20:30;;;;;;;11.15;3.90;;;1.50;99.90;;;;;;12614220;28;20096;-40
2022/02/13 01:26:33;;;;;;;8.40;3.70;;;1.50;99.90;;;;;;12613753;28;20096;-41
2022/02/13 01:32:35;;;;;;;10.02;3.63;;;1.60;99.90;;;;;;12613082;28;20188;-36
2022/02/13 01:38:37;;;;;;;7.40;3.13;;;1.60;99.90;;;;;;12616120;28;20051;-36
2022/02/13 01:44:39;;;;;;;6.18;2.67;;;1.60;99.90;;;;;;12615368;28;20657;-36
2022/02/13 01:50:42;;;;;;;6.32;2.90;;;1.60;99.90;;;;;;12613810;28;20892;-36
2022/02/13 01:57:05;;;;;;;7.72;3.75;;;1.60;99.90;;;;;;12617209;28;20052;-40
2022/02/13 02:03:07;;;;;;;6.50;3.00;;;1.60;99.90;;;;;;12616857;28;20097;-36
2022/02/13 02:09:09;;;;;;;6.72;2.97;;;1.50;99.90;;;;;;12615178;28;20385;-39
2022/02/13 02:15:11;;;;;;;8.32;3.92;;;1.70;99.90;;;;;;12615143;28;20067;-36
2022/02/13 02:21:12;;;;;;;8.13;3.38;;;1.70;99.90;;;;;;12614673;28;20476;-36
2022/02/13 02:27:14;;;;;;;5.25;2.75;;;1.70;99.90;;;;;;12617219;28;20099;-36
2022/02/13 02:33:16;;;;;;;9.30;3.33;;;1.70;99.90;;;;;;12617138;28;20056;-39
2022/02/13 02:39:18;;;;;;;8.25;3.10;;;1.60;99.90;;;;;;12593418;28;20059;-39
2022/02/13 02:45:21;;;;;;;6.80;2.92;;;1.60;99.90;;;;;;12611168;28;20396;-36
2022/02/13 02:51:25;;;;;;;7.22;3.00;;;1.60;99.90;;;;;;12611010;28;20052;-39
2022/02/13 02:57:27;;;;;;;6.90;3.00;;;1.60;99.90;;;;;;12612223;28;20424;-36
2022/02/13 03:03:30;;;;;;;8.73;3.25;;;1.50;99.90;;;;;;12612649;28;20079;-36
2022/02/13 03:09:33;;;;;;;5.75;3.45;;;1.50;99.90;;;;;;12612623;28;20114;-36
2022/02/13 03:15:35;;;;;;;7.82;3.17;;;1.50;99.90;;;;;;12608576;28;20052;-37
2022/02/13 03:21:36;;;;;;;7.93;2.65;;;1.50;99.90;;;;;;12613739;28;20052;-36
2022/02/13 03:27:38;;;;;;;5.97;2.58;;;1.50;99.90;;;;;;12612223;28;21199;-40
2022/02/13 03:33:41;;;;;;;7.60;3.42;;;1.50;99.90;;;;;;12610982;28;20072;-40
2022/02/13 03:39:43;;;;;;;8.20;2.70;;;1.50;99.90;;;;;;12611234;28;20055;-36
2022/02/13 03:45:45;;;;;;;7.40;2.90;;;1.50;99.90;;;;;;12615664;28;20075;-37
2022/02/13 03:51:48;;;;;;;7.78;2.92;;;1.40;99.90;;;;;;12626889;28;20162;-37
2022/02/13 03:57:51;;;;;;;7.53;2.45;;;1.50;99.90;;;;;;12626821;28;20135;-36
2022/02/13 04:03:53;;;;;;;6.30;2.67;;;1.40;99.90;;;;;;12626189;28;20847;-40
2022/02/13 04:09:55;;;;;;;8.60;3.22;;;1.40;99.90;;;;;;12631510;28;20070;-36
2022/02/13 04:15:58;;;;;;;6.47;2.90;;;1.40;99.90;;;;;;12623198;28;20089;-39
2022/02/13 04:22:00;;;;;;;7.85;3.00;;;1.30;99.90;;;;;;12625155;28;20048;-36
2022/02/13 04:28:03;;;;;;;6.82;2.60;;;1.40;99.90;;;;;;12627070;28;20527;-40
2022/02/13 04:34:08;;;;;;;7.13;2.28;;;1.40;99.90;;;;;;12625669;28;20128;-40
2022/02/13 04:40:11;;;;;;;4.55;2.13;;;1.30;99.90;;;;;;12624203;28;20044;-36
2022/02/13 04:46:13;;;;;;;4.63;2.20;;;1.30;99.90;;;;;;12629250;28;20109;-40
2022/02/13 04:52:16;;;;;;;6.55;2.42;;;1.40;99.90;;;;;;12627849;28;20074;-36
2022/02/13 04:58:19;;;;;;;5.57;2.20;;;1.50;99.90;;;;;;12622662;28;20096;-42
2022/02/13 05:04:20;;;;;;;5.70;2.05;;;1.40;99.90;;;;;;12618644;28;20044;-37
2022/02/13 05:10:23;;;;;;;7.28;2.60;;;1.50;99.90;;;;;;12618108;28;20069;-40
2022/02/13 05:16:26;;;;;;;4.40;2.10;;;1.40;99.90;;;;;;12600498;28;20128;-36
2022/02/13 05:22:28;;;;;;;5.05;2.20;;;1.40;99.90;;;;;;12616525;28;20052;-39
2022/02/13 05:28:30;;;;;;;5.25;2.05;;;1.40;99.90;;;;;;12618929;28;20589;-39
2022/02/13 05:34:32;;;;;;;6.22;2.30;;;1.40;99.90;;;;;;12616402;28;20058;-40
2022/02/13 05:40:35;;;;;;;8.50;2.10;;;1.30;99.90;;;;;;12615714;28;20102;-38
2022/02/13 05:46:37;;;;;;;4.68;2.10;;;1.30;99.90;;;;;;12617437;28;20131;-36
2022/02/13 05:52:39;;;;;;;5.43;2.35;;;1.40;99.90;;;;;;12614118;28;20112;-36
2022/02/13 05:58:42;;;;;;;6.47;2.90;;;1.40;99.90;;;;;;12596350;28;20537;-39
2022/02/13 06:04:44;;;;;;;5.40;1.88;;;1.40;99.90;;;;;;12594498;28;20155;-40
2022/02/13 06:10:46;;;;;;;4.10;2.17;;;1.40;99.90;;;;;;12616496;28;20134;-40
2022/02/13 06:16:48;;;;;;;4.15;1.95;;;1.30;99.90;;;;;;12613791;28;20056;-39
2022/02/13 06:22:50;;;;;;;5.75;2.03;;;1.20;99.90;;;;;;12615792;28;20105;-36
2022/02/13 06:28:52;;;;;;;4.38;1.92;;;1.20;99.90;;;;;;12613353;28;20564;-36
2022/02/13 06:34:54;;;;;;;6.00;2.45;;;1.30;99.90;;;;;;12614482;28;20454;-41
2022/02/13 06:40:57;;;;;;;8.02;2.38;;;1.30;99.90;;;;;;12612394;28;20386;-40
2022/02/13 06:46:59;;;;;;;6.88;2.22;;;1.30;99.90;;;;;;12614941;28;21104;-37
2022/02/13 06:53:04;;;;;;;4.65;1.80;;;1.20;99.90;;;;;;12611757;28;20089;-36
2022/02/13 06:59:06;;;;;;;4.60;2.25;;;1.30;99.90;;;;;;12611686;28;20131;-40
2022/02/13 07:05:09;;;;;;;3.45;1.92;;;1.20;99.90;;;;;;12610517;28;20074;-36
2022/02/13 07:11:11;;;;;;;6.85;2.30;;;1.20;99.90;;;;;;12594424;28;20094;-40
2022/02/13 07:17:13;;;;;;;4.00;1.80;;;1.40;99.90;;;;;;12615368;28;20439;-36
2022/02/13 07:23:15;;;;;;;4.28;2.25;;;1.60;99.90;;;;;;12603727;28;20051;-36
2022/02/13 07:29:17;;;;;;;5.28;1.98;;;1.60;99.90;;;;;;12610051;28;20590;-37
2022/02/13 07:35:19;;;;;;;6.57;2.45;;;1.60;99.90;;;;;;12608393;28;20052;-37
2022/02/13 07:41:22;;;;;;;6.85;2.42;;;1.60;99.90;;;;;;12597406;28;20081;-36
2022/02/13 07:47:25;;;;;;;7.72;2.30;;;1.70;99.90;;;;;;12604602;28;20044;-37
2022/02/13 07:53:33;;;;;;;5.78;2.10;;;1.80;99.90;;;;;;12603121;28;20174;-40
2022/02/13 07:59:36;;;;;;;4.97;2.25;;;1.90;99.90;;;;;;12602532;28;20489;-42
2022/02/13 08:05:39;;;;;;;7.43;2.25;;;2.10;99.90;;;;;;12611145;28;20539;-37
2022/02/13 08:11:41;;;;;;;6.85;2.38;;;2.30;99.90;;;;;;12610427;28;20079;-42
2022/02/13 08:17:42;;;;;;;5.00;2.20;;;2.30;99.90;;;;;;12602734;28;20051;-36
2022/02/13 08:23:44;;;;;;;5.22;2.42;;;2.40;99.90;;;;;;12599327;28;20044;-40
2022/02/13 08:29:50;;;;;;;5.95;2.65;;;2.50;99.90;;;;;;12612010;28;20052;-37
2022/02/13 08:35:53;;;;;;;5.78;2.55;;;2.60;99.90;;;;;;12609370;28;20054;-37
2022/02/13 08:41:54;;;;;;;5.93;2.55;;;2.70;99.90;;;;;;12597695;28;20048;-36
2022/02/13 08:47:57;;;;;;;4.90;2.38;;;2.90;99.90;;;;;;12603819;28;20040;-37
2022/02/13 08:53:58;;;;;;;3.63;1.80;;;3.10;99.90;;;;;;12599528;28;20683;-40
2022/02/13 09:00:01;;;;;;;7.10;2.45;;;3.40;99.90;;;;;;12613732;28;20108;-36
2022/02/13 09:06:06;;;;;;;5.07;2.50;;;3.60;99.90;;;;;;12620810;28;20048;-36
2022/02/13 09:12:08;;;;;;;5.88;2.25;;;3.70;99.90;;;;;;12617173;28;20043;-39
2022/02/13 09:18:13;;;;;;;4.00;2.30;;;3.90;99.90;;;;;;12608927;28;20052;-36
2022/02/13 09:24:15;;;;;;;4.18;1.95;;;4.00;99.90;;;;;;12610530;28;20063;-36
2022/02/13 09:30:17;;;;;;;5.25;2.38;;;4.10;99.90;;;;;;12617581;28;20104;-40
2022/02/13 09:36:19;;;;;;;5.78;2.38;;;4.20;99.90;;;;;;12595060;28;20097;-39
2022/02/13 09:42:22;;;;;;;5.53;2.00;;;4.30;99.90;;;;;;12615206;28;20489;-39
2022/02/13 09:48:26;;;;;;;12.25;4.82;;;4.40;99.90;;;;;;12613492;28;20120;-36
2022/02/13 09:54:28;;;;;;;8.52;3.28;;;4.60;99.90;;;;;;12613973;28;20628;-40
2022/02/13 10:00:50;;;;;;;12.82;5.18;;;4.60;99.90;;;;;;12613555;28;20552;-38
2022/02/13 10:06:52;;;;;;;10.23;4.25;;;4.80;99.90;;;;;;12615182;28;20503;-36
2022/02/13 10:12:54;;;;;;;10.32;4.68;;;5.00;99.90;;;;;;12610469;28;20562;-40
2022/02/13 10:18:57;;;;;;;5.07;2.35;;;5.10;99.90;;;;;;12611184;28;20143;-40
2022/02/13 10:25:15;;;;;;;5.20;2.63;;;5.20;99.90;;;;;;12611162;28;20824;-39
2022/02/13 10:31:22;;;;;;;5.05;2.38;;;5.40;99.90;;;;;;12610502;28;20602;-40
2022/02/13 10:37:42;;;;;;;6.32;2.50;;;5.60;99.90;;;;;;12611929;28;20055;-39
2022/02/13 10:43:53;;;;;;;5.95;2.55;;;5.80;99.90;;;;;;12611817;28;20112;-36
2022/02/13 10:49:55;;;;;;;7.28;2.85;;;6.00;99.90;;;;;;12611367;28;20097;-38
2022/02/13 10:55:58;;;;;;;6.25;2.90;;;6.20;99.90;;;;;;12607615;28;20823;-40
2022/02/13 11:02:02;;;;;;;5.47;2.47;;;6.40;99.90;;;;;;12607870;28;20059;-41
2022/02/13 11:08:14;;;;;;;6.35;2.50;;;6.70;99.90;;;;;;12611921;28;20052;-40
2022/02/13 11:14:40;;;;;;;5.90;2.58;;;6.80;99.90;;;;;;12612544;28;20055;-40
2022/02/13 11:20:43;;;;;;;7.13;2.45;;;6.90;99.90;;;;;;12611254;28;20106;-37
2022/02/13 11:26:45;;;;;;;4.85;2.30;;;6.80;99.90;;;;;;12607513;28;20044;-40
2022/02/13 11:32:48;;;;;;;6.60;2.10;;;7.10;99.90;;;;;;12609963;28;20321;-36
2022/02/13 11:38:53;;;;;;;7.55;3.50;;;7.10;99.90;;;;;;12608736;28;20117;-38
2022/02/13 11:44:57;;;;;;;5.15;2.20;;;7.10;99.90;;;;;;12609028;28;20497;-41
2022/02/13 11:50:59;;;;;;;7.63;2.65;;;7.20;99.90;;;;;;12612148;28;20059;-40
2022/02/13 11:57:09;;;;;;;6.07;3.28;;;7.40;99.90;;;;;;12609315;28;20075;-36
2022/02/13 12:03:16;;;;;;;4.05;2.40;;;7.60;99.90;;;;;;12605994;28;20044;-37
2022/02/13 12:09:24;;;;;;;3.97;2.40;;;7.90;99.90;;;;;;12588881;28;20108;-37
2022/02/13 12:15:26;;;;;;;6.35;3.92;;;8.10;99.90;;;;;;12602702;28;20144;-40
2022/02/13 12:21:28;;;;;;;3.97;2.28;;;8.40;99.90;;;;;;12618419;28;20488;-41
2022/02/13 12:27:30;;;;;;;4.78;1.90;;;8.30;99.90;;;;;;12617397;28;20052;-41
2022/02/13 12:33:39;;;;;;;4.50;2.00;;;8.40;99.90;;;;;;12618764;28;20100;-40
2022/02/13 12:39:49;;;;;;;4.45;1.92;;;8.40;99.90;;;;;;12616577;28;20472;-38
2022/02/13 12:45:55;;;;;;;3.38;1.85;;;8.50;99.90;;;;;;12618012;28;20044;-37
2022/02/13 12:51:58;;;;;;;3.90;2.00;;;8.50;99.90;;;;;;12620526;28;20143;-40
2022/02/13 12:58:00;;;;;;;4.45;1.90;;;8.40;99.90;;;;;;12619417;28;20109;-41
2022/02/13 13:04:02;;;;;;;6.13;1.80;;;8.40;99.90;;;;;;12616156;28;20068;-41
2022/02/13 13:10:24;;;;;;;3.53;1.52;;;8.50;99.90;;;;;;12616680;28;20058;-38
2022/02/13 13:16:27;;;;;;;5.65;1.60;;;8.70;99.90;;;;;;12614466;28;20112;-37
2022/02/13 13:22:29;;;;;;;2.80;1.60;;;8.80;99.90;;;;;;12615595;28;20044;-37
2022/02/13 13:28:31;;;;;;;3.88;1.70;;;8.80;99.90;;;;;;12618044;28;20067;-41
2022/02/13 13:34:44;;;;;;;3.70;1.52;;;8.90;99.90;;;;;;12615131;28;20093;-37
2022/02/13 13:40:52;;;;;;;5.32;1.50;;;8.90;99.90;;;;;;12613656;28;20052;-40
2022/02/13 13:46:55;;;;;;;5.47;1.52;;;8.80;99.90;;;;;;12614490;28;20488;-37
2022/02/13 13:52:57;;;;;;;3.65;1.60;;;8.70;99.90;;;;;;12613657;28;20139;-37
2022/02/13 13:58:59;;;;;;;5.90;1.67;;;8.60;99.90;;;;;;12612754;28;20055;-37
2022/02/13 14:05:01;;;;;;;3.67;1.60;;;8.60;99.90;;;;;;12615570;28;20505;-37
2022/02/13 14:11:03;;;;;;;2.75;1.48;;;8.70;99.90;;;;;;12616339;28;20048;-37
2022/02/13 14:17:06;;;;;;;4.22;1.42;;;8.70;99.90;;;;;;12616692;28;20139;-37
2022/02/13 14:23:08;;;;;;;4.07;1.77;;;8.60;99.90;;;;;;12617579;28;20447;-37
2022/02/13 14:29:11;;;;;;;3.40;1.42;;;8.60;99.90;;;;;;12617791;28;20096;-41
2022/02/13 14:35:15;;;;;;;5.15;1.45;;;8.60;99.90;;;;;;12599999;28;20164;-37
2022/02/13 14:41:17;;;;;;;4.35;1.70;;;8.60;99.90;;;;;;12617344;28;20134;-41
2022/02/13 14:47:20;;;;;;;3.67;1.40;;;8.50;99.90;;;;;;12616082;28;20064;-40
2022/02/13 14:53:23;;;;;;;3.90;1.50;;;8.50;99.90;;;;;;12613373;28;20055;-40
2022/02/13 14:59:25;;;;;;;3.15;1.60;;;8.50;99.90;;;;;;12612808;28;20342;-40
2022/02/13 15:05:27;;;;;;;3.38;1.52;;;8.50;99.90;;;;;;12613714;28;20764;-37
2022/02/13 15:11:29;;;;;;;3.78;1.38;;;8.50;99.90;;;;;;12616192;28;20119;-37
2022/02/13 15:17:31;;;;;;;6.18;1.40;;;8.50;99.90;;;;;;12612677;28;20044;-41
2022/02/13 15:23:33;;;;;;;4.35;1.42;;;8.50;99.90;;;;;;12609443;28;20044;-40
2022/02/13 15:29:35;;;;;;;3.85;1.70;;;8.50;99.90;;;;;;12612401;28;20124;-37
2022/02/13 15:35:37;;;;;;;3.38;1.55;;;8.50;99.90;;;;;;12609581;28;20051;-37
2022/02/13 15:41:39;;;;;;;3.47;1.48;;;8.30;99.90;;;;;;12607769;28;20142;-39
2022/02/13 15:47:41;;;;;;;5.07;1.60;;;8.20;99.90;;;;;;12612206;28;20083;-37
2022/02/13 15:53:43;;;;;;;5.07;1.67;;;8.00;99.90;;;;;;12606419;28;20044;-37
2022/02/13 15:59:58;;;;;;;5.03;1.67;;;7.90;99.90;;;;;;12610269;28;20094;-37
2022/02/13 16:06:00;;;;;;;9.20;3.95;;;7.90;99.90;;;;;;12615796;28;20058;-41
2022/02/13 16:12:02;;;;;;;7.88;4.38;;;7.50;99.90;;;;;;12615051;28;20134;-40
2022/02/13 16:18:05;;;;;;;7.82;4.00;;;7.20;99.90;;;;;;12616534;28;20059;-40
2022/02/13 16:24:09;;;;;;;6.47;3.65;;;6.90;99.90;;;;;;12613611;28;20048;-40
2022/02/13 16:30:11;;;;;;;6.15;3.33;;;6.80;99.90;;;;;;12616576;28;20131;-42
2022/02/13 16:36:13;;;;;;;8.45;3.28;;;6.70;99.90;;;;;;12618461;28;20047;-39
2022/02/13 16:42:17;;;;;;;10.52;3.80;;;6.60;99.90;;;;;;12613522;28;20083;-41
2022/02/13 16:48:19;;;;;;;8.77;4.10;;;6.80;99.90;;;;;;12594660;28;20101;-40
2022/02/13 16:54:21;;;;;;;9.73;4.20;;;6.80;99.90;;;;;;12615611;28;20048;-41
2022/02/13 17:00:23;;;;;;;7.35;4.07;;;6.90;99.90;;;;;;12624268;28;20126;-40
2022/02/13 17:06:26;;;;;;;8.75;4.65;;;6.80;99.90;;;;;;12620255;28;20051;-40
2022/02/13 17:12:28;;;;;;;12.38;4.85;;;6.70;99.90;;;;;;12616099;28;20044;-37
2022/02/13 17:18:32;;;;;;;9.20;4.90;;;6.80;99.90;;;;;;12607231;28;20183;-40
2022/02/13 17:24:34;;;;;;;11.15;5.13;;;6.90;99.90;;;;;;12615250;28;20036;-40
2022/02/13 17:30:37;;;;;;;11.10;5.50;;;6.80;99.90;;;;;;12617775;28;20052;-36
2022/02/13 17:36:39;;;;;;;9.85;5.55;;;6.70;99.90;;;;;;12616634;28;20055;-37
2022/02/13 17:42:44;;;;;;;10.73;5.72;;;6.80;99.90;;;;;;12616028;28;20056;-42
2022/02/13 17:48:46;;;;;;;14.27;5.90;;;6.70;99.90;;;;;;12599895;28;20073;-37
2022/02/13 17:54:47;;;;;;;11.90;6.03;;;6.70;99.90;;;;;;12612094;28;21019;-37
2022/02/13 18:00:50;;;;;;;13.52;6.10;;;6.70;99.90;;;;;;12614603;28;20549;-40
2022/02/13 18:06:52;;;;;;;11.13;5.60;;;6.60;99.90;;;;;;12616935;28;20044;-37
2022/02/13 18:12:54;;;;;;;12.57;6.22;;;6.50;99.90;;;;;;12612826;28;20055;-37
2022/02/13 18:18:56;;;;;;;11.38;6.38;;;6.50;99.90;;;;;;12609961;28;20892;-37
2022/02/13 18:24:58;;;;;;;12.77;6.10;;;6.50;99.90;;;;;;12598211;28;20148;-40
2022/02/13 18:31:00;;;;;;;13.40;6.57;;;6.60;99.90;;;;;;12615167;28;20048;-40
2022/02/13 18:37:02;;;;;;;13.13;6.60;;;6.50;99.90;;;;;;12624218;28;20051;-37
2022/02/13 18:43:04;;;;;;;14.35;6.53;;;6.60;99.90;;;;;;12615629;28;20545;-40
2022/02/13 18:49:07;;;;;;;12.10;6.38;;;6.60;99.90;;;;;;12618581;28;20150;-36
2022/02/13 18:55:09;;;;;;;13.10;6.40;;;6.70;99.90;;;;;;12614880;28;20048;-37
2022/02/13 19:01:11;;;;;;;11.48;5.93;;;6.70;99.90;;;;;;12616113;28;20096;-39
2022/02/13 19:07:13;;;;;;;15.63;5.78;;;6.70;99.90;;;;;;12616269;28;20403;-41
2022/02/13 19:13:16;;;;;;;12.55;6.43;;;6.70;99.90;;;;;;12617532;28;20055;-36
2022/02/13 19:19:18;;;;;;;12.13;5.93;;;6.80;99.90;;;;;;12602245;28;20131;-40
2022/02/13 19:25:20;;;;;;;11.30;5.85;;;6.80;99.90;;;;;;12614261;28;20507;-37
2022/02/13 19:31:22;;;;;;;11.23;5.60;;;6.70;99.90;;;;;;12612941;28;20040;-40
2022/02/13 19:37:24;;;;;;;10.80;5.95;;;6.70;99.90;;;;;;12615217;28;20112;-37
2022/02/13 19:43:26;;;;;;;13.48;5.78;;;6.90;99.90;;;;;;12615176;28;20476;-37
2022/02/13 19:49:28;;;;;;;11.80;5.18;;;6.80;99.90;;;;;;12615814;28;20048;-36
2022/02/13 19:55:32;;;;;;;12.30;5.05;;;6.90;99.90;;;;;;12596326;28;20051;-38
2022/02/13 20:01:34;;;;;;;14.38;6.25;;;6.90;99.90;;;;;;12615254;28;20075;-37
2022/02/13 20:07:35;;;;;;;13.43;6.28;;;6.90;99.90;;;;;;12614917;28;20148;-36
2022/02/13 20:13:39;;;;;;;13.75;6.38;;;6.90;99.90;;;;;;12613594;28;20059;-37
2022/02/13 20:19:43;;;;;;;17.60;7.32;;;7.10;99.90;;;;;;12616035;28;20142;-36
2022/02/13 20:25:45;;;;;;;13.43;6.50;;;7.00;99.90;;;;;;12608806;28;20047;-36
2022/02/13 20:31:47;;;;;;;14.82;7.38;;;7.00;99.90;;;;;;12611997;28;20048;-40
2022/02/13 20:37:50;;;;;;;14.20;6.55;;;7.00;99.90;;;;;;12620188;28;20081;-37
2022/02/13 20:43:51;;;;;;;12.07;5.30;;;7.00;99.90;;;;;;12621775;28;20100;-37
2022/02/13 20:49:54;;;;;;;11.68;5.68;;;7.10;99.90;;;;;;12624793;28;20098;-43
2022/02/13 20:55:56;;;;;;;10.73;4.53;;;7.10;99.90;;;;;;12624589;28;20051;-37
2022/02/13 21:01:58;;;;;;;9.98;4.43;;;7.30;99.90;;;;;;12622731;28;20109;-38
2022/02/13 21:08:01;;;;;;;9.38;3.88;;;7.20;99.90;;;;;;12621726;28;20067;-37
2022/02/13 21:14:04;;;;;;;7.18;3.92;;;7.20;99.90;;;;;;12622560;28;20058;-40
2022/02/13 21:20:11;;;;;;;8.52;4.20;;;7.20;99.90;;;;;;12622788;28;20064;-40
2022/02/13 21:26:13;;;;;;;7.32;3.83;;;7.20;99.90;;;;;;12621510;28;20098;-37
2022/02/13 21:32:36;;;;;;;8.98;3.88;;;7.30;99.90;;;;;;12605311;28;20051;-37
2022/02/13 21:38:37;;;;;;;7.68;3.80;;;7.20;99.90;;;;;;12624268;28;20048;-37
2022/02/13 21:44:41;;;;;;;8.57;3.45;;;7.30;99.90;;;;;;12620108;28;20036;-41
2022/02/13 21:50:46;;;;;;;7.72;3.28;;;7.40;99.90;;;;;;12621649;28;20083;-37
2022/02/13 21:56:48;;;;;;;7.90;3.40;;;7.30;99.90;;;;;;12622122;28;20207;-40
2022/02/13 22:02:50;;;;;;;5.55;2.70;;;7.30;99.90;;;;;;12620199;28;20051;-41
2022/02/13 22:08:52;;;;;;;7.60;2.97;;;7.30;99.90;;;;;;12620969;28;20075;-40
2022/02/13 22:14:54;;;;;;;6.70;2.97;;;7.30;99.90;;;;;;12621316;28;20056;-37
2022/02/13 22:20:56;;;;;;;9.18;2.92;;;7.30;99.90;;;;;;12621067;28;20047;-36
2022/02/13 22:26:58;;;;;;;8.68;2.60;;;7.50;99.90;;;;;;12620146;28;20078;-36
2022/02/13 22:33:00;;;;;;;8.85;2.92;;;7.50;99.90;;;;;;12618610;28;20577;-39
2022/02/13 22:39:03;;;;;;;5.10;2.38;;;7.40;99.90;;;;;;12619788;28;20096;-40
2022/02/13 22:45:06;;;;;;;10.23;2.85;;;7.40;99.90;;;;;;12618050;28;20135;-37
2022/02/13 22:51:08;;;;;;;6.68;2.38;;;7.50;99.90;;;;;;12618262;28;20135;-40
2022/02/13 22:57:10;;;;;;;8.30;2.55;;;7.40;99.90;;;;;;12620339;28;20348;-36
2022/02/13 23:03:12;;;;;;;8.63;3.22;;;7.50;99.90;;;;;;12617088;28;20056;-41
2022/02/13 23:15:36;;;;;;;6.93;2.42;;;7.70;99.90;;;;;;12618074;28;20055;-40
2022/02/13 23:21:38;;;;;;;10.43;2.77;;;7.80;99.90;;;;;;12616519;28;20079;-39
2022/02/13 23:27:41;;;;;;;7.53;2.88;;;7.80;99.90;;;;;;12615873;28;20092;-37
2022/02/13 23:33:42;;;;;;;6.60;2.60;;;7.80;99.90;;;;;;12616007;28;20138;-37
2022/02/13 23:39:44;;;;;;;6.20;2.58;;;7.90;99.90;;;;;;12617901;28;20820;-36
2022/02/13 23:45:46;;;;;;;8.77;2.47;;;7.90;99.90;;;;;;12616922;28;20454;-37
2022/02/13 23:51:48;;;;;;;6.97;2.70;;;7.90;99.90;;;;;;12615780;28;20139;-40
2022/02/13 23:57:50;;;;;;;6.40;2.55;;;7.80;99.90;;;;;;12615372;28;20519;-36
